Аэропорт: Байкал. Улан-Удэ

ICAO: UIUU

METAR:
2020-06-04 05:30:00
UIUU 040530Z 34002MPS 290V020 9999 SCT046CB 17/09 Q1008 R26/290255 NOSIG RMK QFE712/0950
METAR:
2020-06-04 02:00:00
TAF UIUU 040200Z 0403/0503 31005G10MPS 9999 SCT040CB TEMPO 0403/0415 VRB10MPS -TSRA BKN014CB